Hlavní strana
METAR-TAF:

METAR-TAF

Letiště :

Karlstad, Švédsko

zeměpisná šířka: 59-26-41N, zeměpisná délka: 013-20-15E, výška: 107 m

Aktuální stav počasí

Zpráva byla vytvořena před 42 minutami, v 12:20 UTC
Jižní vítr 12 kt, proměnlivý mezi jihovýchodním a jihojihozápadním
Teplota 18°C
Vlhkost vzduchu 30%
Tlak 1024 hPa
Viditelnost 10 km a více
Žádná oblačnost pod 1500 m, nevyskytují se cumulonimby.

METAR: ESOK 231220Z 17012KT 140V210 CAVOK 18/M00 Q1024

Čas: 15:02 (13:02 UTC)

Předpověď počasí

Zpráva byla vytvořena před 1 hodinou a 32 minutami, v 11:30 UTC
Předpověď platná od 23 v 12 UTC do 23 v 19 UTC
Jihojihovýchodní vítr 10 kt
Viditelnost 10 km a více
Žádná oblačnost pod 1500 m, nevyskytují se cumulonimby.
Změna
od 23 v 17 UTC do 23 v 19 UTC
Východní vítr 5 kt

TAF: ESOK 231130Z 2312/2319 16010KT CAVOK BECMG 2317/2319 09005KT

Stav a předpovědi počasí z více než 4 000 letišť (zprávy METAR a TAF).

Červené a žluté tečky na mapě představují dostupné meteorologické stanice.

Když kurzor umístíte na tečku, zobrazí se název stanice.

Pak kliknutím zobrazíte stav a předpověď počasí.

Chcete-li změnit mapu, kliknutím na zelené tlačítko se znaménkem +mapu přiblížíte, kliknutím na zelené tlačítko se znaménkem – mapu oddálíte a kliknutím na zelené šipky přejdete na sousední mapy.


METAR-TAF: